首页
METAR-TAF:

METAR-TAF

机场 :

Mid-Way Regional Airport

Midlothian / Waxahachie, 得克萨斯州, 美国

纬度: 32-27-21N, 经度: 096-54-44W, 海拔: 217米

当前天气观测

该预报发布于27分钟前的19:15 UTC
风速6节,风向多变
温度 31°C
湿度 55%
气压 1022 hPa
能見度: 14.5公里
少量云层高于4000英尺
散云层高于31000英尺

METAR: KJWY 201915Z AUTO VRB06KT 9SM FEW040 SCT310 31/21 A3018 RMK AO2 T03070213 TSNO $

时间: 14:42 (19:42 UTC)


TAF: 丢失

超过4000个机场的气象观测和天气预报(METAR&TAF报告)。

可查询的气象台以黄色和红色小点在地图上表示。

将鼠标移到小点上方,可查看气象台名称。

然后点击查看天气观测和预报。

如需切换地图:点击带黑十字的绿色按钮放大地图;点击带横线的绿色按钮缩小地图;或者点击绿色箭头查看邻近地区的地图。


METAR-TAF: